Metar z połowy godziny Komunikat METAR ze strony awiacja.imgw.pl Metar G30 EPPW METAR EPPW 170900Z 12010KT 9999 FEW040 26/15 Q1017 RMK 263 051 2/2=